sensor_id;sensor_type;location;lat;lon;timestamp;P1;durP1;ratioP1;P2;durP2;ratioP2
71963;SDS011;59834;52.124;5.422;2022-12-18T00:04:03;44.30;;;13.90;;
71963;SDS011;59834;52.124;5.422;2022-12-18T00:06:31;33.72;;;12.43;;
71963;SDS011;59834;52.124;5.422;2022-12-18T00:08:59;34.97;;;12.27;;
71963;SDS011;59834;52.124;5.422;2022-12-18T00:11:27;35.47;;;12.00;;
71963;SDS011;59834;52.124;5.422;2022-12-18T00:13:56;42.28;;;12.98;;
71963;SDS011;59834;52.124;5.422;2022-12-18T00:16:28;39.60;;;13.85;;
71963;SDS011;59834;52.124;5.422;2022-12-18T00:18:56;33.78;;;12.30;;
71963;SDS011;59834;52.124;5.422;2022-12-18T00:21:26;37.72;;;13.25;;
71963;SDS011;59834;52.124;5.422;2022-12-18T00:23:54;39.87;;;12.83;;
71963;SDS011;59834;52.124;5.422;2022-12-18T00:26:24;37.15;;;12.70;;
71963;SDS011;59834;52.124;5.422;2022-12-18T00:28:53;40.03;;;12.35;;
71963;SDS011;59834;52.124;5.422;2022-12-18T00:31:22;38.20;;;14.32;;
71963;SDS011;59834;52.124;5.422;2022-12-18T00:33:50;41.22;;;13.45;;
71963;SDS011;59834;52.124;5.422;2022-12-18T00:36:22;40.30;;;14.50;;
71963;SDS011;59834;52.124;5.422;2022-12-18T00:38:53;42.92;;;13.27;;
71963;SDS011;59834;52.124;5.422;2022-12-18T00:53:16;49.45;;;13.93;;
71963;SDS011;59834;52.124;5.422;2022-12-18T00:55:44;41.28;;;12.80;;
71963;SDS011;59834;52.124;5.422;2022-12-18T00:58:12;41.67;;;12.38;;
71963;SDS011;59834;52.124;5.422;2022-12-18T01:00:40;39.80;;;14.00;;
71963;SDS011;59834;52.124;5.422;2022-12-18T01:03:07;46.40;;;12.90;;
71963;SDS011;59834;52.124;5.422;2022-12-18T01:05:33;35.97;;;12.00;;
71963;SDS011;59834;52.124;5.422;2022-12-18T01:08:00;39.22;;;12.02;;
71963;SDS011;59834;52.124;5.422;2022-12-18T01:10:26;37.00;;;12.13;;
71963;SDS011;59834;52.124;5.422;2022-12-18T01:12:53;38.10;;;12.50;;
71963;SDS011;59834;52.124;5.422;2022-12-18T01:15:19;37.47;;;12.00;;
71963;SDS011;59834;52.124;5.422;2022-12-18T01:17:46;38.92;;;12.80;;
71963;SDS011;59834;52.124;5.422;2022-12-18T01:20:13;41.33;;;13.07;;
71963;SDS011;59834;52.124;5.422;2022-12-18T01:22:40;39.10;;;12.50;;
71963;SDS011;59834;52.124;5.422;2022-12-18T01:25:07;39.65;;;13.27;;
71963;SDS011;59834;52.124;5.422;2022-12-18T01:27:34;37.87;;;12.33;;
71963;SDS011;59834;52.124;5.422;2022-12-18T01:30:01;40.45;;;13.68;;
71963;SDS011;59834;52.124;5.422;2022-12-18T01:32:29;37.92;;;14.18;;
71963;SDS011;59834;52.124;5.422;2022-12-18T01:34:56;34.75;;;12.43;;
71963;SDS011;59834;52.124;5.422;2022-12-18T01:37:23;39.80;;;13.40;;
71963;SDS011;59834;52.124;5.422;2022-12-18T01:39:50;38.13;;;11.60;;
71963;SDS011;59834;52.124;5.422;2022-12-18T01:42:18;33.97;;;12.98;;
71963;SDS011;59834;52.124;5.422;2022-12-18T01:44:55;43.28;;;14.25;;
71963;SDS011;59834;52.124;5.422;2022-12-18T01:47:35;38.97;;;12.32;;
71963;SDS011;59834;52.124;5.422;2022-12-18T01:50:18;44.33;;;12.75;;
71963;SDS011;59834;52.124;5.422;2022-12-18T01:52:56;34.27;;;13.10;;
71963;SDS011;59834;52.124;5.422;2022-12-18T01:55:27;40.88;;;12.88;;
71963;SDS011;59834;52.124;5.422;2022-12-18T01:57:57;39.50;;;12.20;;
71963;SDS011;59834;52.124;5.422;2022-12-18T02:00:25;42.35;;;12.70;;
71963;SDS011;59834;52.124;5.422;2022-12-18T02:02:53;37.10;;;13.35;;
71963;SDS011;59834;52.124;5.422;2022-12-18T02:05:29;39.93;;;13.97;;
71963;SDS011;59834;52.124;5.422;2022-12-18T02:08:26;34.63;;;13.65;;
71963;SDS011;59834;52.124;5.422;2022-12-18T02:25:30;35.20;;;12.00;;
71963;SDS011;59834;52.124;5.422;2022-12-18T02:28:00;39.63;;;13.45;;
71963;SDS011;59834;52.124;5.422;2022-12-18T02:30:32;40.90;;;13.10;;
71963;SDS011;59834;52.124;5.422;2022-12-18T02:33:04;34.57;;;11.80;;
71963;SDS011;59834;52.124;5.422;2022-12-18T02:35:33;33.33;;;12.65;;
71963;SDS011;59834;52.124;5.422;2022-12-18T02:38:01;39.72;;;11.18;;
71963;SDS011;59834;52.124;5.422;2022-12-18T02:40:30;43.15;;;14.40;;
71963;SDS011;59834;52.124;5.422;2022-12-18T02:43:08;47.35;;;14.98;;
71963;SDS011;59834;52.124;5.422;2022-12-18T02:48:24;35.72;;;11.80;;
71963;SDS011;59834;52.124;5.422;2022-12-18T02:51:14;33.03;;;11.48;;
71963;SDS011;59834;52.124;5.422;2022-12-18T02:53:53;36.03;;;12.40;;
71963;SDS011;59834;52.124;5.422;2022-12-18T02:56:45;32.58;;;12.15;;
71963;SDS011;59834;52.124;5.422;2022-12-18T02:59:21;38.17;;;12.97;;
71963;SDS011;59834;52.124;5.422;2022-12-18T03:02:02;37.60;;;12.55;;
71963;SDS011;59834;52.124;5.422;2022-12-18T03:04:54;35.72;;;12.48;;
71963;SDS011;59834;52.124;5.422;2022-12-18T03:07:33;40.35;;;12.73;;
71963;SDS011;59834;52.124;5.422;2022-12-18T03:10:05;34.88;;;12.52;;
71963;SDS011;59834;52.124;5.422;2022-12-18T03:12:35;35.00;;;12.33;;
71963;SDS011;59834;52.124;5.422;2022-12-18T03:17:49;32.05;;;11.85;;
71963;SDS011;59834;52.124;5.422;2022-12-18T03:20:21;35.80;;;13.13;;
71963;SDS011;59834;52.124;5.422;2022-12-18T03:22:53;36.40;;;11.98;;
71963;SDS011;59834;52.124;5.422;2022-12-18T03:25:25;34.23;;;11.70;;
71963;SDS011;59834;52.124;5.422;2022-12-18T03:27:54;39.10;;;11.05;;
71963;SDS011;59834;52.124;5.422;2022-12-18T03:30:24;31.35;;;11.13;;
71963;SDS011;59834;52.124;5.422;2022-12-18T03:33:02;33.00;;;11.15;;
71963;SDS011;59834;52.124;5.422;2022-12-18T03:35:55;30.83;;;11.60;;
71963;SDS011;59834;52.124;5.422;2022-12-18T03:38:22;40.57;;;12.17;;
71963;SDS011;59834;52.124;5.422;2022-12-18T03:40:59;30.92;;;11.13;;
71963;SDS011;59834;52.124;5.422;2022-12-18T03:52:09;28.93;;;9.93;;
71963;SDS011;59834;52.124;5.422;2022-12-18T03:54:41;37.08;;;12.20;;
71963;SDS011;59834;52.124;5.422;2022-12-18T03:57:20;32.72;;;10.98;;
71963;SDS011;59834;52.124;5.422;2022-12-18T03:59:52;29.77;;;11.05;;
71963;SDS011;59834;52.124;5.422;2022-12-18T04:02:23;29.77;;;10.25;;
71963;SDS011;59834;52.124;5.422;2022-12-18T04:04:55;24.33;;;10.07;;
71963;SDS011;59834;52.124;5.422;2022-12-18T04:07:25;23.15;;;10.43;;
71963;SDS011;59834;52.124;5.422;2022-12-18T04:09:53;26.30;;;9.77;;
71963;SDS011;59834;52.124;5.422;2022-12-18T04:12:25;29.15;;;11.05;;
71963;SDS011;59834;52.124;5.422;2022-12-18T04:14:52;23.98;;;10.27;;
71963;SDS011;59834;52.124;5.422;2022-12-18T04:17:19;29.50;;;11.00;;
71963;SDS011;59834;52.124;5.422;2022-12-18T04:19:46;25.80;;;10.57;;
71963;SDS011;59834;52.124;5.422;2022-12-18T04:22:12;23.15;;;10.60;;
71963;SDS011;59834;52.124;5.422;2022-12-18T04:24:39;30.35;;;9.73;;
71963;SDS011;59834;52.124;5.422;2022-12-18T04:27:06;25.13;;;10.15;;
71963;SDS011;59834;52.124;5.422;2022-12-18T04:29:32;19.70;;;7.43;;
71963;SDS011;59834;52.124;5.422;2022-12-18T04:31:59;25.75;;;9.50;;
71963;SDS011;59834;52.124;5.422;2022-12-18T04:34:26;22.55;;;8.40;;
71963;SDS011;59834;52.124;5.422;2022-12-18T04:36:52;21.98;;;9.25;;
71963;SDS011;59834;52.124;5.422;2022-12-18T04:39:19;20.15;;;8.05;;
71963;SDS011;59834;52.124;5.422;2022-12-18T04:41:46;25.43;;;9.67;;
71963;SDS011;59834;52.124;5.422;2022-12-18T04:44:13;16.90;;;7.15;;
71963;SDS011;59834;52.124;5.422;2022-12-18T04:46:39;22.15;;;8.60;;
71963;SDS011;59834;52.124;5.422;2022-12-18T04:49:06;19.63;;;7.88;;
71963;SDS011;59834;52.124;5.422;2022-12-18T04:51:32;21.45;;;8.35;;
71963;SDS011;59834;52.124;5.422;2022-12-18T04:53:59;26.33;;;8.37;;
71963;SDS011;59834;52.124;5.422;2022-12-18T04:56:26;15.38;;;7.00;;
71963;SDS011;59834;52.124;5.422;2022-12-18T04:58:52;20.58;;;9.25;;
71963;SDS011;59834;52.124;5.422;2022-12-18T05:01:19;19.08;;;7.75;;
71963;SDS011;59834;52.124;5.422;2022-12-18T05:03:46;18.40;;;7.78;;
71963;SDS011;59834;52.124;5.422;2022-12-18T05:06:12;14.67;;;7.10;;
71963;SDS011;59834;52.124;5.422;2022-12-18T05:08:39;18.00;;;7.20;;
71963;SDS011;59834;52.124;5.422;2022-12-18T05:11:10;16.58;;;6.65;;
71963;SDS011;59834;52.124;5.422;2022-12-18T05:13:41;18.70;;;7.63;;
71963;SDS011;59834;52.124;5.422;2022-12-18T05:16:08;29.75;;;8.68;;
71963;SDS011;59834;52.124;5.422;2022-12-18T05:18:35;16.43;;;6.67;;
71963;SDS011;59834;52.124;5.422;2022-12-18T05:21:02;16.48;;;6.50;;
71963;SDS011;59834;52.124;5.422;2022-12-18T05:23:29;17.20;;;7.38;;
71963;SDS011;59834;52.124;5.422;2022-12-18T05:25:57;23.30;;;8.57;;
71963;SDS011;59834;52.124;5.422;2022-12-18T05:28:27;14.23;;;7.03;;
71963;SDS011;59834;52.124;5.422;2022-12-18T05:30:56;20.63;;;7.20;;
71963;SDS011;59834;52.124;5.422;2022-12-18T05:33:25;20.13;;;7.25;;
71963;SDS011;59834;52.124;5.422;2022-12-18T05:35:55;15.82;;;7.32;;
71963;SDS011;59834;52.124;5.422;2022-12-18T05:38:24;13.15;;;6.72;;
71963;SDS011;59834;52.124;5.422;2022-12-18T05:40:52;15.05;;;6.97;;
71963;SDS011;59834;52.124;5.422;2022-12-18T05:43:20;17.87;;;7.63;;
71963;SDS011;59834;52.124;5.422;2022-12-18T05:45:50;15.82;;;6.40;;
71963;SDS011;59834;52.124;5.422;2022-12-18T05:48:18;19.23;;;6.38;;
71963;SDS011;59834;52.124;5.422;2022-12-18T05:50:45;14.02;;;6.43;;
71963;SDS011;59834;52.124;5.422;2022-12-18T05:53:14;19.05;;;7.68;;
71963;SDS011;59834;52.124;5.422;2022-12-18T05:55:42;17.77;;;7.13;;
71963;SDS011;59834;52.124;5.422;2022-12-18T05:58:10;13.18;;;5.90;;
71963;SDS011;59834;52.124;5.422;2022-12-18T06:00:38;19.58;;;6.30;;
71963;SDS011;59834;52.124;5.422;2022-12-18T06:03:08;13.20;;;5.72;;
71963;SDS011;59834;52.124;5.422;2022-12-18T06:05:36;18.05;;;7.22;;
71963;SDS011;59834;52.124;5.422;2022-12-18T06:08:08;16.03;;;6.03;;
71963;SDS011;59834;52.124;5.422;2022-12-18T06:10:35;14.35;;;5.63;;
71963;SDS011;59834;52.124;5.422;2022-12-18T06:13:01;16.05;;;6.53;;
71963;SDS011;59834;52.124;5.422;2022-12-18T06:15:28;12.65;;;5.65;;
71963;SDS011;59834;52.124;5.422;2022-12-18T06:17:54;18.30;;;6.07;;
71963;SDS011;59834;52.124;5.422;2022-12-18T06:20:21;18.13;;;7.00;;
71963;SDS011;59834;52.124;5.422;2022-12-18T06:22:48;17.60;;;6.72;;
71963;SDS011;59834;52.124;5.422;2022-12-18T06:25:14;19.92;;;6.47;;
71963;SDS011;59834;52.124;5.422;2022-12-18T06:27:41;14.88;;;6.22;;
71963;SDS011;59834;52.124;5.422;2022-12-18T06:30:09;15.88;;;6.30;;
71963;SDS011;59834;52.124;5.422;2022-12-18T06:32:36;18.23;;;7.30;;
71963;SDS011;59834;52.124;5.422;2022-12-18T06:35:03;22.10;;;6.45;;
71963;SDS011;59834;52.124;5.422;2022-12-18T06:37:30;20.25;;;5.93;;
71963;SDS011;59834;52.124;5.422;2022-12-18T06:39:57;14.20;;;6.53;;
71963;SDS011;59834;52.124;5.422;2022-12-18T06:42:24;14.55;;;6.60;;
71963;SDS011;59834;52.124;5.422;2022-12-18T06:44:51;12.47;;;6.50;;
71963;SDS011;59834;52.124;5.422;2022-12-18T06:47:18;13.30;;;5.85;;
71963;SDS011;59834;52.124;5.422;2022-12-18T06:49:44;15.48;;;7.07;;
71963;SDS011;59834;52.124;5.422;2022-12-18T06:52:11;14.40;;;6.07;;
71963;SDS011;59834;52.124;5.422;2022-12-18T06:54:37;14.00;;;6.88;;
71963;SDS011;59834;52.124;5.422;2022-12-18T06:57:04;19.63;;;6.23;;
71963;SDS011;59834;52.124;5.422;2022-12-18T06:59:30;15.90;;;7.20;;
71963;SDS011;59834;52.124;5.422;2022-12-18T07:01:57;13.38;;;6.13;;
71963;SDS011;59834;52.124;5.422;2022-12-18T07:04:28;18.75;;;6.93;;
71963;SDS011;59834;52.124;5.422;2022-12-18T07:06:55;13.73;;;6.15;;
71963;SDS011;59834;52.124;5.422;2022-12-18T07:09:22;15.63;;;6.50;;
71963;SDS011;59834;52.124;5.422;2022-12-18T07:11:49;15.25;;;6.10;;
71963;SDS011;59834;52.124;5.422;2022-12-18T07:14:16;15.73;;;6.88;;
71963;SDS011;59834;52.124;5.422;2022-12-18T07:16:42;14.18;;;6.60;;
71963;SDS011;59834;52.124;5.422;2022-12-18T07:19:09;13.00;;;6.22;;
71963;SDS011;59834;52.124;5.422;2022-12-18T07:21:35;20.63;;;8.40;;
71963;SDS011;59834;52.124;5.422;2022-12-18T07:24:02;22.15;;;7.72;;
71963;SDS011;59834;52.124;5.422;2022-12-18T07:26:29;13.63;;;6.47;;
71963;SDS011;59834;52.124;5.422;2022-12-18T07:28:56;17.33;;;6.75;;
71963;SDS011;59834;52.124;5.422;2022-12-18T07:31:24;19.95;;;6.90;;
71963;SDS011;59834;52.124;5.422;2022-12-18T07:33:52;14.70;;;6.43;;
71963;SDS011;59834;52.124;5.422;2022-12-18T07:36:20;10.68;;;5.75;;
71963;SDS011;59834;52.124;5.422;2022-12-18T07:38:47;15.48;;;6.63;;
71963;SDS011;59834;52.124;5.422;2022-12-18T07:41:15;17.02;;;6.47;;
71963;SDS011;59834;52.124;5.422;2022-12-18T07:43:42;13.02;;;5.82;;
71963;SDS011;59834;52.124;5.422;2022-12-18T07:46:10;17.67;;;7.17;;
71963;SDS011;59834;52.124;5.422;2022-12-18T07:48:40;13.32;;;5.95;;
71963;SDS011;59834;52.124;5.422;2022-12-18T07:51:09;16.63;;;6.18;;
71963;SDS011;59834;52.124;5.422;2022-12-18T07:53:36;14.23;;;6.07;;
71963;SDS011;59834;52.124;5.422;2022-12-18T07:56:04;13.38;;;6.20;;
71963;SDS011;59834;52.124;5.422;2022-12-18T07:58:53;14.17;;;6.33;;
71963;SDS011;59834;52.124;5.422;2022-12-18T08:01:20;19.98;;;8.18;;
71963;SDS011;59834;52.124;5.422;2022-12-18T08:03:47;16.75;;;6.95;;
71963;SDS011;59834;52.124;5.422;2022-12-18T08:06:15;13.80;;;5.70;;
71963;SDS011;59834;52.124;5.422;2022-12-18T08:08:41;14.60;;;7.03;;
71963;SDS011;59834;52.124;5.422;2022-12-18T08:11:08;15.67;;;6.27;;
71963;SDS011;59834;52.124;5.422;2022-12-18T08:13:34;37.90;;;19.95;;
71963;SDS011;59834;52.124;5.422;2022-12-18T08:16:05;22.40;;;12.07;;
71963;SDS011;59834;52.124;5.422;2022-12-18T08:18:35;21.13;;;8.48;;
71963;SDS011;59834;52.124;5.422;2022-12-18T08:21:10;11.18;;;5.35;;
71963;SDS011;59834;52.124;5.422;2022-12-18T08:23:49;15.80;;;5.90;;
71963;SDS011;59834;52.124;5.422;2022-12-18T08:26:17;12.85;;;6.13;;
71963;SDS011;59834;52.124;5.422;2022-12-18T08:28:44;14.00;;;5.75;;
71963;SDS011;59834;52.124;5.422;2022-12-18T08:31:13;18.38;;;6.22;;
71963;SDS011;59834;52.124;5.422;2022-12-18T08:33:40;15.07;;;6.65;;
71963;SDS011;59834;52.124;5.422;2022-12-18T08:36:12;12.63;;;5.53;;
71963;SDS011;59834;52.124;5.422;2022-12-18T08:38:39;12.57;;;5.50;;
71963;SDS011;59834;52.124;5.422;2022-12-18T08:41:06;8.73;;;5.32;;
71963;SDS011;59834;52.124;5.422;2022-12-18T08:43:37;13.88;;;5.80;;
71963;SDS011;59834;52.124;5.422;2022-12-18T08:46:24;9.48;;;5.22;;
71963;SDS011;59834;52.124;5.422;2022-12-18T08:48:53;13.07;;;5.90;;
71963;SDS011;59834;52.124;5.422;2022-12-18T08:51:22;10.23;;;5.05;;
71963;SDS011;59834;52.124;5.422;2022-12-18T08:53:51;14.35;;;6.43;;
71963;SDS011;59834;52.124;5.422;2022-12-18T08:56:18;11.32;;;4.65;;
71963;SDS011;59834;52.124;5.422;2022-12-18T08:58:46;11.35;;;6.07;;
71963;SDS011;59834;52.124;5.422;2022-12-18T09:01:13;12.03;;;5.83;;
71963;SDS011;59834;52.124;5.422;2022-12-18T09:03:41;13.25;;;6.45;;
71963;SDS011;59834;52.124;5.422;2022-12-18T09:06:12;13.40;;;5.35;;
71963;SDS011;59834;52.124;5.422;2022-12-18T09:08:42;10.68;;;5.32;;
71963;SDS011;59834;52.124;5.422;2022-12-18T09:11:15;14.90;;;6.53;;
71963;SDS011;59834;52.124;5.422;2022-12-18T09:13:49;11.00;;;6.13;;
71963;SDS011;59834;52.124;5.422;2022-12-18T09:16:17;12.10;;;5.47;;
71963;SDS011;59834;52.124;5.422;2022-12-18T09:18:46;13.32;;;6.18;;
71963;SDS011;59834;52.124;5.422;2022-12-18T09:21:14;16.85;;;6.22;;
71963;SDS011;59834;52.124;5.422;2022-12-18T09:23:42;14.15;;;6.35;;
71963;SDS011;59834;52.124;5.422;2022-12-18T09:26:10;13.50;;;6.00;;
71963;SDS011;59834;52.124;5.422;2022-12-18T09:28:37;10.07;;;6.03;;
71963;SDS011;59834;52.124;5.422;2022-12-18T09:31:06;17.83;;;6.88;;
71963;SDS011;59834;52.124;5.422;2022-12-18T09:33:38;15.32;;;6.50;;
71963;SDS011;59834;52.124;5.422;2022-12-18T09:36:06;14.98;;;6.78;;
71963;SDS011;59834;52.124;5.422;2022-12-18T09:38:36;13.33;;;5.77;;
71963;SDS011;59834;52.124;5.422;2022-12-18T09:44:03;17.58;;;7.50;;
71963;SDS011;59834;52.124;5.422;2022-12-18T09:46:46;11.30;;;5.78;;
71963;SDS011;59834;52.124;5.422;2022-12-18T09:49:22;10.93;;;5.90;;
71963;SDS011;59834;52.124;5.422;2022-12-18T09:51:54;9.13;;;5.77;;
71963;SDS011;59834;52.124;5.422;2022-12-18T09:55:11;19.80;;;6.10;;
71963;SDS011;59834;52.124;5.422;2022-12-18T09:57:28;10.75;;;5.65;;
71963;SDS011;59834;52.124;5.422;2022-12-18T10:00:14;11.82;;;5.25;;
71963;SDS011;59834;52.124;5.422;2022-12-18T10:02:45;13.05;;;5.60;;
71963;SDS011;59834;52.124;5.422;2022-12-18T10:05:21;11.63;;;5.17;;
71963;SDS011;59834;52.124;5.422;2022-12-18T10:08:23;11.43;;;5.32;;
71963;SDS011;59834;52.124;5.422;2022-12-18T10:14:03;12.32;;;5.10;;
71963;SDS011;59834;52.124;5.422;2022-12-18T10:16:35;14.07;;;5.10;;
71963;SDS011;59834;52.124;5.422;2022-12-18T10:24:32;12.63;;;4.18;;
71963;SDS011;59834;52.124;5.422;2022-12-18T10:27:12;10.32;;;5.20;;
71963;SDS011;59834;52.124;5.422;2022-12-18T10:29:44;9.48;;;5.35;;
71963;SDS011;59834;52.124;5.422;2022-12-18T10:32:19;9.70;;;5.20;;
71963;SDS011;59834;52.124;5.422;2022-12-18T10:34:48;9.20;;;4.93;;
71963;SDS011;59834;52.124;5.422;2022-12-18T10:37:26;12.00;;;5.20;;
71963;SDS011;59834;52.124;5.422;2022-12-18T10:42:47;13.45;;;4.93;;
71963;SDS011;59834;52.124;5.422;2022-12-18T10:45:34;12.43;;;4.90;;
71963;SDS011;59834;52.124;5.422;2022-12-18T10:48:01;10.20;;;4.57;;
71963;SDS011;59834;52.124;5.422;2022-12-18T10:53:24;12.85;;;4.75;;
71963;SDS011;59834;52.124;5.422;2022-12-18T10:55:54;10.50;;;4.10;;
71963;SDS011;59834;52.124;5.422;2022-12-18T10:58:28;10.53;;;3.73;;
71963;SDS011;59834;52.124;5.422;2022-12-18T11:03:45;11.50;;;4.97;;
71963;SDS011;59834;52.124;5.422;2022-12-18T11:06:28;12.18;;;4.70;;
71963;SDS011;59834;52.124;5.422;2022-12-18T11:09:05;10.80;;;4.93;;
71963;SDS011;59834;52.124;5.422;2022-12-18T11:11:49;9.60;;;4.80;;
71963;SDS011;59834;52.124;5.422;2022-12-18T11:14:29;12.73;;;4.95;;
71963;SDS011;59834;52.124;5.422;2022-12-18T11:16:59;12.13;;;4.80;;
71963;SDS011;59834;52.124;5.422;2022-12-18T11:20:00;10.90;;;5.05;;
71963;SDS011;59834;52.124;5.422;2022-12-18T11:22:30;12.05;;;4.97;;
71963;SDS011;59834;52.124;5.422;2022-12-18T11:34:24;9.68;;;4.47;;
71963;SDS011;59834;52.124;5.422;2022-12-18T11:36:57;9.73;;;4.72;;
71963;SDS011;59834;52.124;5.422;2022-12-18T11:39:34;10.90;;;5.60;;
71963;SDS011;59834;52.124;5.422;2022-12-18T11:44:54;9.60;;;4.63;;
71963;SDS011;59834;52.124;5.422;2022-12-18T11:53:22;12.33;;;4.60;;
71963;SDS011;59834;52.124;5.422;2022-12-18T12:05:32;8.85;;;4.10;;
71963;SDS011;59834;52.124;5.422;2022-12-18T12:11:40;9.18;;;4.18;;
71963;SDS011;59834;52.124;5.422;2022-12-18T12:17:18;9.15;;;3.95;;
71963;SDS011;59834;52.124;5.422;2022-12-18T12:31:17;12.57;;;4.88;;
71963;SDS011;59834;52.124;5.422;2022-12-18T12:36:49;12.73;;;4.97;;
71963;SDS011;59834;52.124;5.422;2022-12-18T12:39:34;13.63;;;5.43;;
71963;SDS011;59834;52.124;5.422;2022-12-18T12:42:04;10.55;;;5.28;;
71963;SDS011;59834;52.124;5.422;2022-12-18T12:44:56;9.48;;;4.53;;
71963;SDS011;59834;52.124;5.422;2022-12-18T12:47:29;9.93;;;5.55;;
71963;SDS011;59834;52.124;5.422;2022-12-18T12:50:00;9.73;;;4.67;;
71963;SDS011;59834;52.124;5.422;2022-12-18T12:52:34;8.52;;;5.22;;
71963;SDS011;59834;52.124;5.422;2022-12-18T12:55:07;8.75;;;4.57;;
71963;SDS011;59834;52.124;5.422;2022-12-18T13:00:43;10.57;;;4.85;;
71963;SDS011;59834;52.124;5.422;2022-12-18T13:03:23;12.57;;;4.93;;
71963;SDS011;59834;52.124;5.422;2022-12-18T13:05:54;10.85;;;6.05;;
71963;SDS011;59834;52.124;5.422;2022-12-18T13:08:28;10.07;;;5.00;;
71963;SDS011;59834;52.124;5.422;2022-12-18T13:11:02;12.63;;;5.45;;
71963;SDS011;59834;52.124;5.422;2022-12-18T13:13:55;17.88;;;6.78;;
71963;SDS011;59834;52.124;5.422;2022-12-18T13:16:24;8.87;;;5.00;;
71963;SDS011;59834;52.124;5.422;2022-12-18T13:18:57;10.38;;;5.40;;
71963;SDS011;59834;52.124;5.422;2022-12-18T13:21:28;11.27;;;5.53;;
71963;SDS011;59834;52.124;5.422;2022-12-18T13:27:24;11.27;;;5.18;;
71963;SDS011;59834;52.124;5.422;2022-12-18T13:38:20;11.52;;;5.38;;
71963;SDS011;59834;52.124;5.422;2022-12-18T13:41:00;12.70;;;5.57;;
71963;SDS011;59834;52.124;5.422;2022-12-18T13:43:48;13.57;;;5.93;;
71963;SDS011;59834;52.124;5.422;2022-12-18T13:49:03;13.60;;;6.00;;
71963;SDS011;59834;52.124;5.422;2022-12-18T13:51:52;14.32;;;5.45;;
71963;SDS011;59834;52.124;5.422;2022-12-18T13:54:37;9.75;;;5.05;;
71963;SDS011;59834;52.124;5.422;2022-12-18T13:57:24;11.57;;;5.87;;
71963;SDS011;59834;52.124;5.422;2022-12-18T13:59:51;12.13;;;5.43;;
71963;SDS011;59834;52.124;5.422;2022-12-18T14:02:28;14.15;;;5.25;;
71963;SDS011;59834;52.124;5.422;2022-12-18T14:04:55;11.70;;;5.90;;
71963;SDS011;59834;52.124;5.422;2022-12-18T14:09:56;12.90;;;5.53;;
71963;SDS011;59834;52.124;5.422;2022-12-18T14:12:49;10.55;;;5.13;;
71963;SDS011;59834;52.124;5.422;2022-12-18T14:18:02;12.52;;;5.45;;
71963;SDS011;59834;52.124;5.422;2022-12-18T14:20:41;12.05;;;5.75;;
71963;SDS011;59834;52.124;5.422;2022-12-18T14:28:56;13.48;;;5.38;;
71963;SDS011;59834;52.124;5.422;2022-12-18T14:31:25;11.52;;;4.85;;
71963;SDS011;59834;52.124;5.422;2022-12-18T14:33:53;11.82;;;6.85;;
71963;SDS011;59834;52.124;5.422;2022-12-18T14:36:21;14.87;;;6.07;;
71963;SDS011;59834;52.124;5.422;2022-12-18T14:38:52;10.27;;;6.00;;
71963;SDS011;59834;52.124;5.422;2022-12-18T14:41:24;13.10;;;4.88;;
71963;SDS011;59834;52.124;5.422;2022-12-18T14:43:52;11.68;;;5.30;;
71963;SDS011;59834;52.124;5.422;2022-12-18T14:46:30;12.38;;;5.68;;
71963;SDS011;59834;52.124;5.422;2022-12-18T14:49:04;12.87;;;5.60;;
71963;SDS011;59834;52.124;5.422;2022-12-18T14:51:48;12.90;;;5.35;;
71963;SDS011;59834;52.124;5.422;2022-12-18T14:54:18;11.55;;;5.80;;
71963;SDS011;59834;52.124;5.422;2022-12-18T14:56:47;13.98;;;5.38;;
71963;SDS011;59834;52.124;5.422;2022-12-18T14:59:19;12.43;;;5.75;;
71963;SDS011;59834;52.124;5.422;2022-12-18T15:02:01;13.50;;;6.10;;
71963;SDS011;59834;52.124;5.422;2022-12-18T15:04:35;14.20;;;6.18;;
71963;SDS011;59834;52.124;5.422;2022-12-18T15:07:09;14.75;;;5.68;;
71963;SDS011;59834;52.124;5.422;2022-12-18T15:09:59;10.45;;;5.75;;
71963;SDS011;59834;52.124;5.422;2022-12-18T15:15:02;13.03;;;5.80;;
71963;SDS011;59834;52.124;5.422;2022-12-18T15:17:30;11.38;;;5.55;;
71963;SDS011;59834;52.124;5.422;2022-12-18T15:20:00;11.30;;;5.97;;
71963;SDS011;59834;52.124;5.422;2022-12-18T15:22:30;14.98;;;6.68;;
71963;SDS011;59834;52.124;5.422;2022-12-18T15:25:01;13.48;;;7.13;;
71963;SDS011;59834;52.124;5.422;2022-12-18T15:32:37;14.07;;;6.15;;
71963;SDS011;59834;52.124;5.422;2022-12-18T15:37:37;14.75;;;5.88;;
71963;SDS011;59834;52.124;5.422;2022-12-18T15:40:06;15.33;;;6.97;;
71963;SDS011;59834;52.124;5.422;2022-12-18T15:42:34;11.57;;;5.72;;
71963;SDS011;59834;52.124;5.422;2022-12-18T15:45:19;15.75;;;5.88;;
71963;SDS011;59834;52.124;5.422;2022-12-18T15:47:48;17.33;;;6.88;;
71963;SDS011;59834;52.124;5.422;2022-12-18T15:50:15;15.38;;;6.20;;
71963;SDS011;59834;52.124;5.422;2022-12-18T15:52:43;18.50;;;6.17;;
71963;SDS011;59834;52.124;5.422;2022-12-18T15:55:12;17.65;;;6.13;;
71963;SDS011;59834;52.124;5.422;2022-12-18T15:57:58;16.60;;;6.47;;
71963;SDS011;59834;52.124;5.422;2022-12-18T16:00:24;14.18;;;6.43;;
71963;SDS011;59834;52.124;5.422;2022-12-18T16:02:52;13.40;;;5.95;;
71963;SDS011;59834;52.124;5.422;2022-12-18T16:05:19;14.07;;;6.40;;
71963;SDS011;59834;52.124;5.422;2022-12-18T16:07:47;17.27;;;7.18;;
71963;SDS011;59834;52.124;5.422;2022-12-18T16:10:14;14.25;;;6.38;;
71963;SDS011;59834;52.124;5.422;2022-12-18T16:12:41;12.95;;;6.25;;
71963;SDS011;59834;52.124;5.422;2022-12-18T16:15:10;11.40;;;6.43;;
71963;SDS011;59834;52.124;5.422;2022-12-18T16:17:39;12.30;;;6.17;;
71963;SDS011;59834;52.124;5.422;2022-12-18T16:20:12;18.42;;;6.80;;
71963;SDS011;59834;52.124;5.422;2022-12-18T16:22:43;19.00;;;7.82;;
71963;SDS011;59834;52.124;5.422;2022-12-18T16:25:17;18.70;;;7.70;;
71963;SDS011;59834;52.124;5.422;2022-12-18T16:27:49;14.13;;;7.35;;
71963;SDS011;59834;52.124;5.422;2022-12-18T16:30:18;13.03;;;7.50;;
71963;SDS011;59834;52.124;5.422;2022-12-18T16:32:46;12.32;;;6.10;;
71963;SDS011;59834;52.124;5.422;2022-12-18T16:35:13;15.07;;;6.78;;
71963;SDS011;59834;52.124;5.422;2022-12-18T16:37:41;17.65;;;7.13;;
71963;SDS011;59834;52.124;5.422;2022-12-18T16:40:09;16.70;;;7.68;;
71963;SDS011;59834;52.124;5.422;2022-12-18T16:42:38;13.23;;;7.00;;
71963;SDS011;59834;52.124;5.422;2022-12-18T16:45:07;21.35;;;7.40;;
71963;SDS011;59834;52.124;5.422;2022-12-18T16:47:34;20.30;;;7.70;;
71963;SDS011;59834;52.124;5.422;2022-12-18T16:50:01;14.48;;;6.60;;
71963;SDS011;59834;52.124;5.422;2022-12-18T16:52:28;21.85;;;7.15;;
71963;SDS011;59834;52.124;5.422;2022-12-18T16:54:55;16.57;;;8.60;;
71963;SDS011;59834;52.124;5.422;2022-12-18T16:57:22;15.65;;;7.03;;
71963;SDS011;59834;52.124;5.422;2022-12-18T16:59:51;17.63;;;7.32;;
71963;SDS011;59834;52.124;5.422;2022-12-18T17:02:19;17.17;;;7.45;;
71963;SDS011;59834;52.124;5.422;2022-12-18T17:04:52;15.88;;;7.45;;
71963;SDS011;59834;52.124;5.422;2022-12-18T17:07:20;16.40;;;7.10;;
71963;SDS011;59834;52.124;5.422;2022-12-18T17:09:47;14.50;;;7.05;;
71963;SDS011;59834;52.124;5.422;2022-12-18T17:12:15;16.42;;;7.53;;
71963;SDS011;59834;52.124;5.422;2022-12-18T17:14:42;17.27;;;7.55;;
71963;SDS011;59834;52.124;5.422;2022-12-18T17:17:09;15.75;;;6.65;;
71963;SDS011;59834;52.124;5.422;2022-12-18T17:19:51;20.10;;;7.50;;
71963;SDS011;59834;52.124;5.422;2022-12-18T17:22:18;16.95;;;7.50;;
71963;SDS011;59834;52.124;5.422;2022-12-18T17:24:45;21.13;;;8.35;;